Time;durP1;ratioP1;P1;durP2;ratioP2;P2;SDS_P1;SDS_P2;PMS_P1;PMS_P2;Temp;Humidity;BMP_temperature;BMP_pressure;BME280_temperature;BME280_humidity;BME280_pressure;Samples;Min_cycle;Max_cycle;Signal;HPM_P1;HPM_P2
2021/11/13 00:01:56;;;;;;;45.22;25.63;;;;;;;4.77;100.00;99373.44;5084093;28;20647;-78
2021/11/13 00:04:23;;;;;;;41.25;24.63;;;;;;;4.70;100.00;99361.25;5086724;28;20227;-78
2021/11/13 00:06:50;;;;;;;42.53;25.08;;;;;;;4.88;100.00;99351.66;5091870;28;20649;-77
2021/11/13 00:09:18;;;;;;;45.20;26.13;;;;;;;4.87;100.00;99346.41;5090685;28;20606;-77
2021/11/13 00:11:44;;;;;;;44.03;23.95;;;;;;;4.68;100.00;99340.91;5091123;28;20218;-77
2021/11/13 00:14:16;;;;;;;38.53;22.17;;;;;;;4.59;100.00;99337.69;5091685;28;20185;-77
2021/11/13 00:16:43;;;;;;;41.63;23.35;;;;;;;4.67;100.00;99345.38;5084802;28;20192;-77
2021/11/13 00:19:10;;;;;;;41.58;24.45;;;;;;;4.78;100.00;99343.16;5091159;28;20184;-78
2021/11/13 00:21:36;;;;;;;44.95;25.05;;;;;;;4.89;99.63;99353.44;5090599;28;20653;-77
2021/11/13 00:24:03;;;;;;;36.75;21.85;;;;;;;4.78;99.04;99352.97;5091453;28;20208;-76
2021/11/13 00:26:31;;;;;;;41.20;23.80;;;;;;;4.84;99.25;99342.06;5091405;28;20677;-77
2021/11/13 00:28:58;;;;;;;33.33;21.15;;;;;;;5.15;95.70;99340.84;5091118;28;20192;-78
2021/11/13 00:31:25;;;;;;;37.25;21.80;;;;;;;5.13;95.11;99351.59;5091101;28;20661;-77
2021/11/13 00:33:52;;;;;;;35.50;20.80;;;;;;;5.06;94.39;99341.22;5091487;28;20240;-78
2021/11/13 00:36:18;;;;;;;35.42;21.25;;;;;;;4.70;97.16;99337.25;5091171;28;20192;-78
2021/11/13 00:38:45;;;;;;;35.85;21.20;;;;;;;4.78;97.20;99327.16;5090608;28;20185;-78
2021/11/13 00:41:12;;;;;;;37.53;22.00;;;;;;;4.81;96.97;99331.50;5090860;28;20191;-77
2021/11/13 00:43:40;;;;;;;38.17;21.48;;;;;;;4.75;96.66;99329.97;5091341;28;20275;-77
2021/11/13 00:46:06;;;;;;;39.58;22.35;;;;;;;4.66;97.46;99327.66;5090752;28;20196;-78
2021/11/13 00:48:33;;;;;;;36.38;22.05;;;;;;;4.60;98.89;99338.53;5091322;28;20649;-77
2021/11/13 00:51:00;;;;;;;34.15;21.40;;;;;;;4.55;99.71;99352.03;5091255;28;20630;-78
2021/11/13 00:53:26;;;;;;;34.35;21.85;;;;;;;4.76;98.84;99344.16;5091134;28;20216;-77
2021/11/13 00:55:53;;;;;;;33.53;21.85;;;;;;;4.65;97.91;99341.03;5091004;28;20216;-78
2021/11/13 00:58:20;;;;;;;30.83;20.90;;;;;;;4.69;97.39;99335.53;5090387;28;20573;-77
2021/11/13 01:00:48;;;;;;;32.17;20.42;;;;;;;4.55;97.58;99336.03;5091144;28;20279;-78
2021/11/13 01:03:15;;;;;;;27.30;17.60;;;;;;;4.38;97.73;99334.00;5090672;28;20224;-77
2021/11/13 01:05:41;;;;;;;33.08;19.02;;;;;;;4.21;100.00;99331.09;5091118;28;20219;-77
2021/11/13 01:08:08;;;;;;;33.60;17.98;;;;;;;4.20;100.00;99340.00;5091057;28;20649;-78
2021/11/13 01:10:35;;;;;;;29.40;18.50;;;;;;;4.11;100.00;99340.34;5090863;28;20276;-78
2021/11/13 01:13:01;;;;;;;29.85;18.85;;;;;;;4.21;100.00;99344.44;5090869;28;20195;-78
2021/11/13 01:15:28;;;;;;;30.38;17.50;;;;;;;4.31;100.00;99340.50;5090901;28;20690;-78
2021/11/13 01:17:56;;;;;;;29.27;18.90;;;;;;;4.34;99.41;99342.16;5090800;28;20191;-77
2021/11/13 01:20:25;;;;;;;27.75;17.80;;;;;;;4.37;99.55;99342.94;5090843;28;20193;-78
2021/11/13 01:22:52;;;;;;;29.95;17.83;;;;;;;4.38;98.48;99343.78;5091107;28;20595;-78
2021/11/13 01:25:20;;;;;;;24.85;15.60;;;;;;;4.54;96.03;99344.97;5091078;28;20219;-78
2021/11/13 01:27:47;;;;;;;25.60;16.27;;;;;;;4.50;95.38;99340.69;5091197;28;20211;-78
2021/11/13 01:30:14;;;;;;;24.70;16.30;;;;;;;4.38;96.46;99343.78;5082569;28;20184;-78
2021/11/13 01:32:42;;;;;;;25.80;15.48;;;;;;;4.48;95.90;99339.88;5090979;28;20194;-77
2021/11/13 01:35:10;;;;;;;26.40;16.02;;;;;;;4.37;96.21;99342.06;5090932;28;20220;-78
2021/11/13 01:37:37;;;;;;;24.67;17.10;;;;;;;4.38;96.46;99341.13;5090953;28;20187;-78
2021/11/13 01:40:07;;;;;;;23.67;15.32;;;;;;;4.57;94.10;99334.19;5090497;28;20193;-78
2021/11/13 01:42:34;;;;;;;24.30;15.13;;;;;;;4.29;95.19;99337.00;5090489;28;20228;-78
2021/11/13 01:45:01;;;;;;;22.48;14.73;;;;;;;4.30;94.74;99340.56;5090610;28;20201;-77
2021/11/13 01:47:27;;;;;;;21.50;13.93;;;;;;;4.31;93.54;99335.16;5091130;28;20189;-78
2021/11/13 01:49:54;;;;;;;25.15;15.68;;;;;;;4.01;94.58;99334.47;5091295;28;20203;-77
2021/11/13 01:52:22;;;;;;;22.02;14.77;;;;;;;4.08;93.67;99333.34;5094572;28;20545;-77
2021/11/13 01:54:49;;;;;;;20.95;14.02;;;;;;;3.96;94.15;99326.66;5093999;28;20188;-77
2021/11/13 01:57:21;;;;;;;20.25;14.25;;;;;;;3.83;94.57;99335.13;5094640;28;20242;-78
2021/11/13 01:59:50;;;;;;;25.45;14.23;;;;;;;3.87;94.36;99342.09;5093337;28;20618;-77
2021/11/13 02:02:16;;;;;;;20.10;13.25;;;;;;;3.74;96.01;99352.28;5094111;28;20199;-77
2021/11/13 02:04:43;;;;;;;20.73;15.43;;;;;;;3.86;96.09;99348.34;5093932;28;20213;-77
2021/11/13 02:07:10;;;;;;;20.95;14.00;;;;;;;4.10;93.73;99343.94;5094074;28;20197;-77
2021/11/13 02:09:38;;;;;;;19.95;12.60;;;;;;;4.27;92.19;99325.53;5093941;28;20287;-77
2021/11/13 02:12:06;;;;;;;17.67;13.02;;;;;;;3.97;92.17;99323.06;5086193;28;20210;-78
2021/11/13 02:14:33;;;;;;;19.58;13.32;;;;;;;4.39;91.36;99325.09;5091957;28;20206;-77
2021/11/13 02:17:00;;;;;;;16.52;12.77;;;;;;;4.34;90.56;99332.41;5093271;28;20227;-77
2021/11/13 02:19:27;;;;;;;19.08;13.00;;;;;;;4.43;90.22;99316.97;5094215;28;20185;-78
2021/11/13 02:21:55;;;;;;;17.10;13.70;;;;;;;4.45;89.90;99315.97;5093619;28;20617;-78
2021/11/13 02:24:21;;;;;;;19.05;12.88;;;;;;;4.36;90.04;99325.22;5093461;28;20192;-78
2021/11/13 02:26:48;;;;;;;20.65;13.07;;;;;;;4.36;90.42;99325.22;5093843;28;20231;-78
2021/11/13 02:29:15;;;;;;;19.10;13.38;;;;;;;4.62;88.73;99315.34;5094306;28;20219;-78
2021/11/13 02:31:44;;;;;;;24.40;13.63;;;;;;;4.59;87.55;99316.34;5094294;28;20299;-78
2021/11/13 02:34:12;;;;;;;18.02;13.10;;;;;;;4.74;86.87;99316.66;5093713;28;20197;-78
2021/11/13 02:36:40;;;;;;;18.23;13.27;;;;;;;4.64;87.29;99307.31;5093603;28;20736;-78
2021/11/13 02:39:10;;;;;;;19.98;13.50;;;;;;;4.63;87.26;99319.75;5093752;28;20707;-77
2021/11/13 02:41:37;;;;;;;18.00;13.52;;;;;;;4.64;87.02;99308.16;5092993;28;20232;-77
2021/11/13 02:44:06;;;;;;;18.88;13.25;;;;;;;4.68;87.23;99306.22;5093745;28;20189;-78
2021/11/13 02:46:33;;;;;;;18.40;13.25;;;;;;;4.59;87.29;99303.00;5093041;28;20213;-77
2021/11/13 02:49:03;;;;;;;16.70;13.10;;;;;;;4.28;88.89;99289.09;5092293;28;20189;-77
2021/11/13 02:51:30;;;;;;;16.52;12.75;;;;;;;4.29;89.50;99286.38;5093490;28;20196;-77
2021/11/13 02:53:57;;;;;;;17.73;12.85;;;;;;;4.31;89.68;99273.84;5092995;28;20262;-77
2021/11/13 02:56:25;;;;;;;16.38;12.52;;;;;;;4.54;88.33;99280.97;5093204;28;20184;-77
2021/11/13 02:58:52;;;;;;;18.60;13.98;;;;;;;4.69;87.10;99271.50;5093257;28;20272;-77
2021/11/13 03:01:20;;;;;;;18.70;13.30;;;;;;;4.78;86.14;99276.47;5093399;28;20191;-77
2021/11/13 03:03:48;;;;;;;21.67;14.20;;;;;;;4.86;85.63;99272.63;5084960;28;20195;-77
2021/11/13 03:06:16;;;;;;;15.52;12.05;;;;;;;4.75;85.94;99283.75;5092334;28;20303;-77
2021/11/13 03:08:43;;;;;;;19.92;13.55;;;;;;;4.77;86.87;99273.88;5093486;28;20181;-77
2021/11/13 03:11:13;;;;;;;18.20;12.75;;;;;;;4.89;86.43;99278.72;5093077;28;20195;-77
2021/11/13 03:13:43;;;;;;;15.73;12.60;;;;;;;5.02;85.17;99276.44;5092701;28;20204;-77
2021/11/13 03:16:10;;;;;;;16.48;12.70;;;;;;;5.09;84.92;99277.94;5093128;28;20203;-78
2021/11/13 03:18:38;;;;;;;16.23;13.40;;;;;;;5.11;84.99;99273.41;5091497;28;20204;-77
2021/11/13 03:21:06;;;;;;;16.65;12.73;;;;;;;5.13;84.36;99275.97;5084024;28;20546;-77
2021/11/13 03:23:32;;;;;;;18.35;12.93;;;;;;;4.97;85.11;99271.25;5087348;28;20205;-77
2021/11/13 03:26:02;;;;;;;18.98;13.80;;;;;;;4.95;85.56;99280.28;5089013;28;20207;-77
2021/11/13 03:28:31;;;;;;;19.73;14.25;;;;;;;4.99;85.25;99282.75;5088908;28;20193;-77
2021/11/13 03:31:02;;;;;;;16.35;12.48;;;;;;;5.07;84.92;99277.13;5088981;28;20260;-77
2021/11/13 03:33:29;;;;;;;20.00;13.43;;;;;;;5.17;84.01;99278.47;5090409;28;20203;-77
2021/11/13 03:35:55;;;;;;;19.30;13.07;;;;;;;5.37;82.87;99272.31;5081726;28;20626;-77
2021/11/13 03:38:23;;;;;;;16.05;12.02;;;;;;;5.46;82.35;99267.50;5090277;28;20181;-77
2021/11/13 03:40:51;;;;;;;19.02;12.70;;;;;;;5.52;82.35;99268.13;5085789;28;20188;-77
2021/11/13 03:43:18;;;;;;;16.70;13.13;;;;;;;5.46;82.52;99270.19;5084215;28;20221;-76
2021/11/13 03:45:47;;;;;;;16.52;12.60;;;;;;;5.22;83.17;99263.16;5085366;28;20201;-78
2021/11/13 03:48:15;;;;;;;16.15;12.75;;;;;;;5.11;84.56;99246.72;5078959;28;20186;-77
2021/11/13 03:50:42;;;;;;;17.02;13.88;;;;;;;4.93;85.90;99255.44;5091631;28;20210;-77
2021/11/13 03:53:09;;;;;;;15.15;12.48;;;;;;;5.01;85.94;99251.53;5083552;28;20192;-77
2021/11/13 03:55:36;;;;;;;17.90;13.75;;;;;;;5.02;86.70;99241.75;5089710;28;20184;-76
2021/11/13 03:58:04;;;;;;;16.67;13.65;;;;;;;5.00;87.01;99247.16;5082182;28;20187;-76
2021/11/13 04:00:31;;;;;;;17.75;13.10;;;;;;;4.93;87.74;99234.09;5084501;28;20315;-76
2021/11/13 04:02:58;;;;;;;20.13;14.30;;;;;;;4.91;87.71;99244.00;5083022;28;20914;-77
2021/11/13 04:05:26;;;;;;;21.35;13.48;;;;;;;4.95;87.47;99238.47;5088491;28;20213;-78
2021/11/13 04:07:53;;;;;;;17.58;13.43;;;;;;;4.89;88.34;99249.38;5084647;28;20192;-78
2021/11/13 04:10:20;;;;;;;17.30;12.55;;;;;;;4.85;89.04;99242.44;5091089;28;20206;-76
2021/11/13 04:12:47;;;;;;;21.75;14.55;;;;;;;4.84;89.61;99243.38;5084748;28;20545;-78
2021/11/13 04:15:14;;;;;;;17.13;13.77;;;;;;;4.96;89.66;99234.00;5088339;28;20189;-76
2021/11/13 04:17:42;;;;;;;19.83;13.65;;;;;;;4.93;89.71;99247.44;5088428;28;20192;-78
2021/11/13 04:20:11;;;;;;;15.77;13.13;;;;;;;5.17;88.25;99243.75;5085101;28;20189;-78
2021/11/13 04:22:40;;;;;;;17.02;12.95;;;;;;;5.05;88.60;99232.75;5086058;28;20191;-78
2021/11/13 04:25:08;;;;;;;17.33;14.32;;;;;;;5.18;88.38;99236.66;5083193;28;20213;-77
2021/11/13 04:27:34;;;;;;;19.50;13.95;;;;;;;5.23;88.00;99240.84;5087935;28;20195;-76
2021/11/13 04:30:01;;;;;;;14.93;12.20;;;;;;;5.37;87.31;99240.25;5081615;28;20364;-76
2021/11/13 04:32:29;;;;;;;15.55;13.15;;;;;;;5.57;85.82;99236.75;5090274;28;20196;-76
2021/11/13 04:35:14;;;;;;;20.50;13.90;;;;;;;5.70;84.29;99229.06;5090509;28;20243;-76
2021/11/13 04:37:43;;;;;;;16.90;12.60;;;;;;;5.56;85.22;99218.09;5080120;28;20202;-76
2021/11/13 04:40:11;;;;;;;17.75;13.52;;;;;;;5.36;87.85;99232.31;5082352;28;20223;-77
2021/11/13 04:42:38;;;;;;;19.50;14.63;;;;;;;5.48;87.22;99234.47;5075978;28;20254;-76
2021/11/13 04:45:06;;;;;;;18.33;13.93;;;;;;;5.66;86.26;99218.59;5080773;28;20267;-76
2021/11/13 04:47:33;;;;;;;17.90;14.10;;;;;;;5.44;87.55;99225.72;5083223;28;20288;-77
2021/11/13 04:50:01;;;;;;;16.60;13.43;;;;;;;5.47;88.49;99221.19;5089669;28;20280;-77
2021/11/13 04:52:27;;;;;;;22.52;14.85;;;;;;;5.38;89.22;99209.09;5090053;28;20193;-78
2021/11/13 04:54:56;;;;;;;17.80;14.55;;;;;;;5.33;89.68;99211.94;5086023;28;20195;-76
2021/11/13 04:57:23;;;;;;;18.23;14.25;;;;;;;5.32;88.91;99201.38;5086163;28;20197;-78
2021/11/13 04:59:49;;;;;;;17.10;13.60;;;;;;;5.32;90.63;99207.56;5085779;28;20193;-77
2021/11/13 05:02:16;;;;;;;18.23;14.07;;;;;;;5.30;90.43;99205.91;5088358;28;20641;-76
2021/11/13 05:04:43;;;;;;;21.33;15.70;;;;;;;5.09;91.56;99208.53;5090468;28;20287;-76
2021/11/13 05:07:09;;;;;;;17.88;13.95;;;;;;;5.03;93.82;99208.78;5090199;28;20200;-76
2021/11/13 05:09:36;;;;;;;17.67;14.20;;;;;;;5.07;94.12;99205.06;5082925;28;20188;-77
2021/11/13 05:12:05;;;;;;;17.73;13.80;;;;;;;5.05;94.25;99203.41;5079938;28;20189;-77
2021/11/13 05:14:32;;;;;;;19.20;14.60;;;;;;;5.09;94.77;99200.53;5079393;28;20547;-77
2021/11/13 05:16:59;;;;;;;16.70;13.40;;;;;;;5.16;94.10;99207.34;5076446;28;20193;-77
2021/11/13 05:19:25;;;;;;;18.95;14.15;;;;;;;5.14;94.61;99195.88;5090154;28;20193;-77
2021/11/13 05:21:52;;;;;;;18.05;14.20;;;;;;;5.08;94.91;99192.59;5085504;28;20193;-77
2021/11/13 05:24:18;;;;;;;20.80;15.23;;;;;;;5.07;95.63;99185.53;5088026;28;20496;-77
2021/11/13 05:26:45;;;;;;;19.17;13.75;;;;;;;5.01;96.70;99194.66;5080250;28;20210;-77
2021/11/13 05:29:13;;;;;;;21.33;16.10;;;;;;;5.08;97.27;99192.59;5084639;28;20193;-77
2021/11/13 05:31:40;;;;;;;19.58;14.65;;;;;;;4.87;98.56;99181.88;5083762;28;20185;-77
2021/11/13 05:34:06;;;;;;;20.65;15.45;;;;;;;4.92;98.41;99198.56;5094308;28;20189;-77
2021/11/13 05:36:33;;;;;;;22.67;15.48;;;;;;;5.03;98.88;99197.25;5090241;28;20195;-77
2021/11/13 05:39:00;;;;;;;22.95;16.00;;;;;;;4.99;99.56;99197.38;5090298;28;20180;-77
2021/11/13 05:41:26;;;;;;;20.48;15.70;;;;;;;4.95;99.70;99189.56;5092160;28;20196;-77
2021/11/13 05:43:53;;;;;;;21.05;14.98;;;;;;;5.00;100.00;99195.59;5092276;28;20200;-78
2021/11/13 05:46:21;;;;;;;22.00;15.63;;;;;;;5.19;99.64;99198.34;5086258;28;20227;-77
2021/11/13 05:48:47;;;;;;;19.95;14.48;;;;;;;5.02;100.00;99204.41;5091700;28;20193;-77
2021/11/13 05:51:14;;;;;;;20.83;15.63;;;;;;;5.23;99.92;99203.47;5085004;28;20575;-77
2021/11/13 05:53:40;;;;;;;19.85;16.17;;;;;;;5.21;100.00;99216.03;5092270;28;20192;-77
2021/11/13 05:56:07;;;;;;;22.48;17.63;;;;;;;5.35;100.00;99207.41;5087661;28;20653;-77
2021/11/13 05:58:34;;;;;;;22.75;15.50;;;;;;;5.52;99.67;99212.03;5089438;28;20196;-77
2021/11/13 06:01:01;;;;;;;23.00;15.80;;;;;;;5.42;100.00;99211.56;5093065;28;20189;-77
2021/11/13 06:03:29;;;;;;;19.77;15.35;;;;;;;5.57;99.11;99207.38;5087502;28;20525;-76
2021/11/13 06:05:56;;;;;;;19.92;15.52;;;;;;;5.46;99.28;99203.44;5092733;28;20675;-77
2021/11/13 06:08:24;;;;;;;23.98;16.83;;;;;;;5.41;99.95;99208.97;5086100;28;20284;-77
2021/11/13 06:10:51;;;;;;;20.90;16.02;;;;;;;5.60;99.84;99209.03;5083813;28;20284;-77
2021/11/13 06:13:18;;;;;;;19.80;15.70;;;;;;;5.72;98.01;99205.84;5082631;28;20573;-77
2021/11/13 06:15:44;;;;;;;22.30;16.42;;;;;;;5.73;98.49;99202.22;5085246;28;20211;-77
2021/11/13 06:18:11;;;;;;;23.00;15.25;;;;;;;5.61;99.75;99208.09;5083178;28;20193;-77
2021/11/13 06:20:39;;;;;;;22.85;16.58;;;;;;;5.56;100.00;99210.09;5092256;28;20184;-77
2021/11/13 06:23:05;;;;;;;24.40;16.77;;;;;;;5.65;100.00;99212.34;5090749;28;20203;-77
2021/11/13 06:25:32;;;;;;;21.27;16.35;;;;;;;5.72;100.00;99218.28;5086081;28;20190;-78
2021/11/13 06:27:58;;;;;;;25.13;17.45;;;;;;;5.73;99.56;99223.56;5089166;28;20280;-78
2021/11/13 06:30:28;;;;;;;21.40;15.70;;;;;;;5.64;99.52;99222.19;5086786;28;20593;-78
2021/11/13 06:32:56;;;;;;;23.40;17.70;;;;;;;5.63;99.78;99223.13;5086862;28;20622;-78
2021/11/13 06:35:23;;;;;;;23.75;17.33;;;;;;;5.60;100.00;99225.91;5084327;28;20643;-79
2021/11/13 06:37:51;;;;;;;24.95;17.27;;;;;;;5.63;100.00;99220.47;5082540;28;20683;-79
2021/11/13 06:40:18;;;;;;;23.20;17.52;;;;;;;5.78;100.00;99210.00;5084433;28;20303;-77
2021/11/13 06:42:45;;;;;;;23.90;17.27;;;;;;;5.64;100.00;99207.97;5082084;28;20221;-79
2021/11/13 06:45:13;;;;;;;24.90;17.30;;;;;;;5.81;100.00;99217.88;5084838;28;20193;-77
2021/11/13 06:47:41;;;;;;;25.85;18.60;;;;;;;5.65;100.00;99209.69;5091207;28;20624;-78
2021/11/13 06:50:10;;;;;;;26.20;17.35;;;;;;;5.69;100.00;99213.09;5087340;28;20190;-77
2021/11/13 06:52:37;;;;;;;23.83;17.42;;;;;;;5.68;100.00;99214.91;5089085;28;20219;-77
2021/11/13 06:55:05;;;;;;;25.98;18.00;;;;;;;5.77;100.00;99218.97;5091442;28;20204;-78
2021/11/13 06:57:32;;;;;;;27.48;17.52;;;;;;;5.77;100.00;99219.84;5091298;28;20203;-79
2021/11/13 06:59:58;;;;;;;25.92;16.95;;;;;;;5.67;100.00;99223.84;5081971;28;20207;-78
2021/11/13 07:02:25;;;;;;;23.63;17.05;;;;;;;5.76;100.00;99225.25;5089705;28;20200;-78
2021/11/13 07:04:52;;;;;;;27.83;17.65;;;;;;;5.79;100.00;99236.69;5091578;28;20188;-77
2021/11/13 07:07:19;;;;;;;27.58;19.02;;;;;;;5.97;100.00;99242.13;5091557;28;21040;-79
2021/11/13 07:09:46;;;;;;;25.65;16.90;;;;;;;6.09;100.00;99235.41;5090098;28;20193;-77
2021/11/13 07:12:14;;;;;;;27.70;16.88;;;;;;;5.94;100.00;99234.25;5085425;28;20186;-77
2021/11/13 07:14:40;;;;;;;30.08;17.92;;;;;;;6.21;100.00;99235.69;5087734;28;20546;-77
2021/11/13 07:17:07;;;;;;;25.13;17.73;;;;;;;6.41;98.95;99249.94;5091123;28;20189;-79
2021/11/13 07:19:34;;;;;;;27.30;18.48;;;;;;;6.32;98.90;99245.88;5080860;28;20530;-79
2021/11/13 07:22:01;;;;;;;25.02;18.02;;;;;;;6.48;98.10;99254.94;5091670;28;20558;-78
2021/11/13 07:24:27;;;;;;;28.42;17.05;;;;;;;6.43;99.24;99264.13;5092107;28;20185;-77
2021/11/13 07:26:54;;;;;;;24.52;17.88;;;;;;;6.47;97.87;99255.03;5083698;28;20212;-78
2021/11/13 07:29:23;;;;;;;26.08;16.42;;;;;;;6.35;99.42;99259.09;5083188;28;20201;-77
2021/11/13 07:31:50;;;;;;;28.23;17.75;;;;;;;6.43;99.20;99259.63;5092372;28;20196;-78
2021/11/13 07:34:17;;;;;;;35.08;18.85;;;;;;;6.35;100.00;99258.25;5091816;28;20189;-77
2021/11/13 07:36:43;;;;;;;24.90;17.38;;;;;;;6.33;100.00;99258.34;5092131;28;20531;-78
2021/11/13 07:39:10;;;;;;;25.55;17.98;;;;;;;6.18;100.00;99251.00;5091771;28;20185;-77
2021/11/13 07:41:36;;;;;;;25.02;16.60;;;;;;;6.38;100.00;99253.63;5091163;28;20235;-78
2021/11/13 07:44:04;;;;;;;23.58;17.52;;;;;;;6.42;100.00;99247.22;5091971;28;20195;-78
2021/11/13 07:46:34;;;;;;;24.58;17.30;;;;;;;6.50;100.00;99246.84;5091401;28;20220;-78
2021/11/13 07:49:00;;;;;;;24.70;18.05;;;;;;;6.57;100.00;99252.78;5090942;28;20611;-78
2021/11/13 07:51:27;;;;;;;25.95;17.83;;;;;;;6.42;100.00;99251.66;5091274;28;20661;-78
2021/11/13 07:53:54;;;;;;;26.70;17.83;;;;;;;6.42;100.00;99251.66;5091929;28;20284;-76
2021/11/13 07:56:20;;;;;;;32.30;23.17;;;;;;;6.31;100.00;99237.94;5089543;28;20287;-76
2021/11/13 07:58:47;;;;;;;24.90;17.20;;;;;;;6.29;100.00;99256.75;5087915;28;20577;-78
2021/11/13 08:01:14;;;;;;;26.90;18.25;;;;;;;6.34;100.00;99262.72;5091725;28;20190;-78
2021/11/13 08:03:42;;;;;;;26.25;18.13;;;;;;;6.47;100.00;99249.66;5092844;28;20197;-79
2021/11/13 08:06:09;;;;;;;26.67;18.23;;;;;;;6.55;100.00;99241.28;5091140;28;20214;-78
2021/11/13 08:08:35;;;;;;;27.55;17.40;;;;;;;6.70;100.00;99245.91;5090822;28;20289;-78
2021/11/13 08:11:02;;;;;;;26.25;18.63;;;;;;;6.80;100.00;99241.81;5090410;28;20661;-78
2021/11/13 08:13:28;;;;;;;26.15;17.40;;;;;;;7.00;100.00;99242.69;5090460;28;20193;-78
2021/11/13 08:15:55;;;;;;;24.38;17.75;;;;;;;6.99;100.00;99236.47;5090762;28;20276;-78
2021/11/13 08:18:22;;;;;;;25.25;17.38;;;;;;;6.96;100.00;99254.47;5091449;28;20275;-79
2021/11/13 08:20:51;;;;;;;25.90;18.83;;;;;;;6.93;100.00;99246.59;5089866;28;20204;-78
2021/11/13 08:23:17;;;;;;;22.80;16.50;;;;;;;7.07;100.00;99244.09;5071338;28;20292;-79
2021/11/13 08:25:46;;;;;;;27.98;19.02;;;;;;;7.21;100.00;99246.97;5090501;28;20272;-79
2021/11/13 08:28:14;;;;;;;25.38;17.88;;;;;;;7.30;99.71;99241.16;5083069;28;20218;-78
2021/11/13 08:30:41;;;;;;;27.30;16.92;;;;;;;7.31;100.00;99247.38;5087095;28;20180;-78
2021/11/13 08:33:08;;;;;;;25.85;17.75;;;;;;;7.35;100.00;99246.28;5088777;28;20258;-79
2021/11/13 08:35:35;;;;;;;26.75;17.25;;;;;;;7.66;98.13;99237.53;5090251;28;20260;-77
2021/11/13 08:38:05;;;;;;;26.92;18.23;;;;;;;7.75;96.74;99236.19;5090266;28;20511;-78
2021/11/13 08:40:34;;;;;;;34.20;22.98;;;;;;;7.62;98.10;99235.06;5090098;28;20307;-77
2021/11/13 08:43:02;;;;;;;27.25;18.10;;;;;;;7.65;98.17;99225.09;5089496;28;20227;-78
2021/11/13 08:45:29;;;;;;;28.95;19.50;;;;;;;7.77;97.59;99222.72;5090889;28;20268;-77
2021/11/13 08:47:56;;;;;;;25.75;18.33;;;;;;;7.69;96.88;99225.81;5090056;28;20216;-77
2021/11/13 08:50:24;;;;;;;29.48;17.83;;;;;;;7.73;97.28;99230.91;5090958;28;20193;-78
2021/11/13 08:52:54;;;;;;;25.13;18.48;;;;;;;7.79;98.46;99231.53;5087802;28;20553;-76
2021/11/13 08:55:24;;;;;;;24.50;17.15;;;;;;;7.83;98.37;99225.06;5090636;28;20271;-78
2021/11/13 08:57:51;;;;;;;23.30;17.13;;;;;;;7.88;98.58;99220.31;5091948;28;20691;-79
2021/11/13 09:00:22;;;;;;;23.60;16.20;;;;;;;8.08;97.62;99217.44;5091143;28;20274;-78
2021/11/13 09:02:49;;;;;;;27.90;17.90;;;;;;;8.27;96.33;99221.81;5093607;28;20188;-78
2021/11/13 09:05:16;;;;;;;21.73;16.38;;;;;;;8.22;98.76;99214.00;5095104;28;20268;-78
2021/11/13 09:07:43;;;;;;;26.27;17.33;;;;;;;8.47;98.52;99208.19;5091489;28;20574;-78
2021/11/13 09:10:10;;;;;;;20.98;16.10;;;;;;;8.61;95.72;99214.59;5098636;28;20588;-78
2021/11/13 09:12:38;;;;;;;26.60;19.77;;;;;;;8.53;95.84;99213.22;5095047;28;20198;-76
2021/11/13 09:15:09;;;;;;;22.98;17.15;;;;;;;8.54;95.92;99203.34;5095203;28;20199;-78
2021/11/13 09:17:36;;;;;;;25.50;17.95;;;;;;;8.59;95.99;99205.75;5095570;28;20180;-78
2021/11/13 09:20:03;;;;;;;22.75;16.60;;;;;;;8.68;94.38;99208.81;5095371;28;20646;-77
2021/11/13 09:22:30;;;;;;;22.20;17.05;;;;;;;8.76;93.34;99198.50;5094677;28;20209;-77
2021/11/13 09:24:56;;;;;;;26.08;18.40;;;;;;;8.87;92.68;99200.56;5094906;28;20187;-77
2021/11/13 09:27:23;;;;;;;23.55;16.75;;;;;;;8.91;93.19;99196.75;5094783;28;20227;-77
2021/11/13 09:29:52;;;;;;;23.65;16.98;;;;;;;8.95;92.63;99201.00;5094989;28;20183;-77
2021/11/13 09:32:18;;;;;;;24.30;17.40;;;;;;;9.00;93.97;99195.38;5093736;28;20219;-78
2021/11/13 09:34:45;;;;;;;24.00;17.90;;;;;;;8.97;93.78;99196.38;5094719;28;20651;-77
2021/11/13 09:37:12;;;;;;;27.65;18.77;;;;;;;8.94;95.56;99195.72;5095164;28;20369;-77
2021/11/13 09:39:38;;;;;;;25.27;18.25;;;;;;;8.72;97.35;99204.13;5095380;28;20605;-76
2021/11/13 09:42:05;;;;;;;25.38;18.08;;;;;;;8.72;98.36;99209.50;5095201;28;20231;-78
2021/11/13 09:44:33;;;;;;;21.23;18.20;;;;;;;9.10;97.65;99206.44;5094670;28;20192;-77
2021/11/13 09:47:03;;;;;;;22.42;17.48;;;;;;;9.19;97.07;99211.25;5094536;28;20205;-76
2021/11/13 09:49:31;;;;;;;26.15;18.02;;;;;;;9.26;96.90;99215.31;5094688;28;20202;-76
2021/11/13 09:52:00;;;;;;;27.15;17.88;;;;;;;9.27;96.19;99209.00;5095898;28;20280;-78
2021/11/13 09:54:27;;;;;;;25.73;18.98;;;;;;;9.24;96.45;99214.53;5094444;28;20191;-78
2021/11/13 09:56:54;;;;;;;21.70;17.63;;;;;;;9.18;97.31;99212.22;5094732;28;20552;-78
2021/11/13 09:59:21;;;;;;;25.02;17.52;;;;;;;9.25;98.63;99205.53;5094429;28;20187;-78
2021/11/13 10:01:48;;;;;;;28.90;18.38;;;;;;;9.08;99.81;99200.28;5093892;28;20313;-78
2021/11/13 10:04:16;;;;;;;22.00;17.40;;;;;;;8.96;100.00;99200.03;5093907;28;20192;-77
2021/11/13 10:06:43;;;;;;;21.98;17.48;;;;;;;8.77;100.00;99196.66;5094230;28;20536;-78
2021/11/13 10:09:09;;;;;;;25.55;17.95;;;;;;;8.45;100.00;99202.03;5094487;28;20272;-77
2021/11/13 10:11:40;;;;;;;26.02;18.02;;;;;;;8.63;100.00;99200.13;5102111;28;20277;-78
2021/11/13 10:14:07;;;;;;;21.63;15.13;;;;;;;9.01;100.00;99196.22;5114147;28;20206;-78
2021/11/13 10:16:35;;;;;;;20.70;15.13;;;;;;;8.96;100.00;99193.81;5112044;28;20196;-77
2021/11/13 10:19:06;;;;;;;17.77;14.05;;;;;;;8.95;100.00;99190.25;5094582;28;20286;-76
2021/11/13 10:21:36;;;;;;;21.35;16.40;;;;;;;9.08;100.00;99185.03;5094204;28;20568;-77
2021/11/13 10:24:10;;;;;;;18.52;14.65;;;;;;;9.44;100.00;99182.94;5093887;28;20218;-77
2021/11/13 10:26:39;;;;;;;22.75;15.90;;;;;;;9.45;100.00;99182.88;5094240;28;20185;-77
2021/11/13 10:29:08;;;;;;;18.75;14.50;;;;;;;9.48;100.00;99177.28;5105608;28;20329;-77
2021/11/13 10:31:37;;;;;;;20.40;15.75;;;;;;;9.74;100.00;99180.22;5111073;28;20215;-77
2021/11/13 10:34:07;;;;;;;20.73;13.75;;;;;;;9.77;96.70;99172.84;5113943;28;20307;-77
2021/11/13 10:36:37;;;;;;;20.40;14.43;;;;;;;9.71;97.81;99170.50;5094752;28;20189;-77
2021/11/13 10:39:09;;;;;;;17.80;13.38;;;;;;;9.57;98.91;99171.34;5094063;28;20275;-78
2021/11/13 10:41:44;;;;;;;22.75;15.32;;;;;;;9.66;98.64;99175.31;5102857;28;20238;-77
2021/11/13 10:44:11;;;;;;;17.75;13.20;;;;;;;9.75;97.89;99176.56;5113665;28;20239;-77
2021/11/13 10:46:41;;;;;;;20.67;13.25;;;;;;;9.71;97.71;99166.97;5114207;28;20188;-78
2021/11/13 10:49:08;;;;;;;19.35;14.27;;;;;;;9.82;96.64;99172.53;5113685;28;20206;-77
2021/11/13 10:51:38;;;;;;;18.05;12.52;;;;;;;9.82;97.17;99164.47;5111484;28;20196;-77
2021/11/13 10:54:10;;;;;;;15.75;11.85;;;;;;;9.71;96.50;99170.50;5072786;28;20545;-78
2021/11/13 10:56:43;;;;;;;17.90;13.48;;;;;;;9.59;97.33;99172.13;5082288;28;20631;-78
2021/11/13 10:59:10;;;;;;;16.75;12.10;;;;;;;9.65;97.64;99170.88;5094154;28;20678;-77
2021/11/13 11:01:39;;;;;;;19.48;14.23;;;;;;;9.59;98.43;99171.28;5095588;28;20199;-77
2021/11/13 11:04:13;;;;;;;17.90;13.18;;;;;;;9.43;99.49;99165.06;5093001;28;20275;-78
2021/11/13 11:06:45;;;;;;;16.98;13.00;;;;;;;9.55;99.39;99170.59;5092207;28;20291;-78
2021/11/13 11:09:27;;;;;;;16.98;12.93;;;;;;;9.63;97.84;99170.09;5089838;28;20239;-77
2021/11/13 11:11:57;;;;;;;17.20;11.68;;;;;;;9.57;98.82;99162.44;5091497;28;20199;-78
2021/11/13 11:14:25;;;;;;;20.90;15.15;;;;;;;9.46;100.00;99159.53;5092242;28;20206;-78
2021/11/13 11:16:55;;;;;;;17.55;13.55;;;;;;;9.57;100.00;99157.06;5092387;28;20209;-78
2021/11/13 11:19:25;;;;;;;24.98;19.80;;;;;;;9.49;100.00;99159.34;5093652;28;20573;-78
2021/11/13 11:21:59;;;;;;;16.70;12.32;;;;;;;9.39;100.00;99154.53;5091852;28;20312;-78
2021/11/13 11:24:29;;;;;;;19.45;13.77;;;;;;;9.48;99.98;99153.09;5092429;28;20196;-78